Terminal Aerodrome Forecast
Issued by NWS

Home | Current Version | Previous Version | Text Only | Print | Product List | Glossary On
Versions: 1 2 3 4 5 6 7 8 9 10 11 12 13 14 15 16 17 18 19 20 21 22 23
787
FTUS41 KOKX 241150
TAFSWF
TAF
KSWF 241150Z 2412/2518 VRB02KT P6SM BKN250
     FM241500 11005KT P6SM BKN180
     FM242000 13006KT P6SM BKN150
     FM250000 11005KT P6SM BKN120
     FM250600 08006KT P6SM -RA OVC060
     FM251000 08007KT 5SM -RA BR SCT015 OVC050
     FM251300 08012G17KT 2SM -RA BR SCT008 OVC012
      AMD NOT SKED=

USA.gov is the U.S. government's official web portal to all federal, state and local government web resources and services.